CFB Trenton
CYTR : now visible

Airfield :











YOU CAN JOIN US ON...

 
LOGIN :

Register | Disclaimer

   EN    FR    IT 

 









Legend :    VFR   Marginal VFR   IFR   Intensive IFR   Very Intensive IFR
Visi :
Ceiling :
>= 8 km
>= 3000ft
5 to 8 km
1000 to 3000 ft
1500m to 5 km
500 to 1000 ft
800 to 1500m
200 to 500 ft
< 800m
< 200 ft
Symbols :   Thunderstorms  Fog  Heavy snow  Heavy precipitations  Wind > 20 kt






- Airport Elevation : 283 ft
- IATA code : YTR


CYTR - CFB Trenton

CURRENT METAR :
  • 120300Z 27012KT 15SM SKC M07/M15 A3043 RMK SLP312

EXPIRED METARs :
  • 120200Z 26011G18KT 15SM SKC M07/M15 A3040 RMK SLP302
  • 120100Z 26014G19KT 15SM SKC M07/M15 A3038 RMK SLP294

TAF TAF CYTR
Valid from the 12 at 00:00 until the 13 at 00:00 UTC


112330Z 1200/1224 26015G25KT P6SM SCT020
TEMPO 1200/1202 P6SM -SHSN OVC020
FM120200 27012KT P6SM SCT020
BECMG 1210/1212 27005KT
FM121600 27008KT P6SM SCT025 BKN100
FM122100 VRB03KT P6SM BKN025 OVC080 RMK NXT FCST BY 120600Z



MET'MAP, your aeronautical weather chart ! - Copyright ORBIFLY December 2007 - Disclaimer

ORBIFLY MET'MAP TEAM :

Programming & Development : Alexandra Zaïnal
Concept & original design : Baudouin d'Aumeries
Assistance for programming : Marc-Olivier Méhu
Technical & hardware support : Manuel Goepfert

Contact : metmap@orbifly.com




SOURCES & CREDITS :

   NOAA       Earth
Advisory